Sartell, MN (56377)

10:53 AM CST on February 27, 2015 (GMT -0600)
Bridgeport | Change Station
CLOSE
Current Station
Personal Weather Station
Location: Sartell, MN
Elevation: 1037 ft
Nearby Weather Stations

Elev 1037 ft 45.60 °N, 94.20 °W | Updated 12 seconds ago

Clear
Clear
9.0 °F
Feels Like 9 °F
N
3.0
Wind Variable Wind from WSW
Gusts 10.0 mph

Today
High -- | Low -- °F
--% Chance of Precip.
Yesterday
High -- | Low -- °F
Precip. -- in
6:59 AM 6:00 PM
Waxing Gibbous, 70% visible
Pressure 30.63 in
Visibility 10.0 miles
Clouds Clear
Windchill 9 °F
Dew Point 4 °F
Humidity 70%
Rainfall 0.00 in
Snow Depth Not available.
UV 2 out of 12
Pollen .40 out of 12
Air Quality Not available.
Flu Activity Not available.
METAR KSTC 271553Z 23007KT 10SM CLR M16/M21 A3051 RMK AO2 SLP370 T11561206

More Conditions Fewer Conditions

Pressure 30.63 in
Visibility 10.0 miles
Clouds Clear
Windchill 9 °F
Dew Point 4 °F
Humidity 70%
Rainfall 0.00 in
Snow Depth Not available.
UV 2 out of 12
Pollen .40 out of 12
Air Quality Not available.
Flu Activity Not available.
METAR KSTC 271553Z 23007KT 10SM CLR M16/M21 A3051 RMK AO2 SLP370 T11561206

More Conditions Fewer Conditions

10-Day Weather Forecast

Almanac

Astronomy

Feb. 27, 2015 Rise Set
Actual Time
Civil Twilight
Nautical Twilight
Astronomical Twilight
Moon
Length of Visible Light
Length of Day
Tomorrow will be .
, % of the Moon is Illuminated

Today's Extremes

State Highs State Lows

Community

WunderPhotos

Upload Photos

1,800,732 photos uploaded!

WunderBlogs® & News

Nearby

Air Quality

  Air Quality AQ Index Pollutant
Not available.

Snow Depth

Station Depth Elevation

Earthquake Activity

City Distance Mag. Time & Date
Minimum magnitude displayed is 2.5.

Coastal Water Temperatures

Place Temperature

Nearby Weather Stations